Terminal Aerodrome Forecast
Issued by NWS Tulsa, OK

Home | Current Version | Previous Version | Text Only | Print | Product List | Glossary On
Versions: 1 2 3 4 5 6 7 8 9 10 11 12
000
FTUS44 KTSA 260500
TAFTUL
TAF
KTUL 260539Z 2606/2706 17012KT P6SM BKN200
     FM261400 17012KT P6SM BKN025
     FM262100 17012KT 6SM -RA OVC015
     FM270300 20007KT 6SM -RA OVC008=

USA.gov is the U.S. government's official web portal to all federal, state and local government web resources and services.